createdAt,value
2017-09-14T00:00:33.983Z,0
2017-09-14T00:01:44.245Z,0
2017-09-14T00:02:54.514Z,0
2017-09-14T00:04:04.459Z,0
2017-09-14T00:05:14.080Z,0
2017-09-14T00:06:24.019Z,0
2017-09-14T00:07:33.959Z,0
2017-09-14T00:08:43.902Z,0
2017-09-14T00:09:53.842Z,0
2017-09-14T00:11:03.782Z,0
2017-09-14T00:12:13.720Z,0
2017-09-14T00:13:23.670Z,0
2017-09-14T00:14:33.613Z,0
2017-09-14T00:15:43.872Z,0
2017-09-14T00:16:54.134Z,0
2017-09-14T00:18:03.758Z,0
2017-09-14T00:19:14.021Z,0
2017-09-14T00:20:23.967Z,0
2017-09-14T00:21:34.233Z,0
2017-09-14T00:22:44.179Z,0
2017-09-14T00:23:53.804Z,0
2017-09-14T00:25:03.754Z,0
2017-09-14T00:26:14.031Z,0
2017-09-14T00:27:24.299Z,0
2017-09-14T00:28:34.242Z,0
2017-09-14T00:29:43.858Z,0
2017-09-14T00:30:53.806Z,0
2017-09-14T00:32:04.062Z,0
2017-09-14T00:33:13.690Z,0
2017-09-14T00:34:23.953Z,0
2017-09-14T00:35:34.220Z,0
2017-09-14T00:36:44.159Z,0
2017-09-14T00:37:54.106Z,0
2017-09-14T00:39:04.044Z,0
2017-09-14T00:40:13.982Z,0
2017-09-14T00:41:24.243Z,0
2017-09-14T00:42:34.180Z,0
2017-09-14T00:43:44.445Z,0
2017-09-14T00:44:54.708Z,0
2017-09-14T00:46:04.986Z,0
2017-09-14T00:47:15.256Z,0
2017-09-14T00:48:25.528Z,0
2017-09-14T00:49:35.155Z,0
2017-09-14T00:50:47.101Z,0
2017-09-14T00:51:56.725Z,0
2017-09-14T00:53:06.988Z,0
2017-09-14T00:54:17.259Z,0
2017-09-14T00:55:27.204Z,0
2017-09-14T00:56:37.489Z,0
2017-09-14T00:57:47.754Z,0
2017-09-14T00:58:58.017Z,0
2017-09-14T01:00:07.961Z,0
2017-09-14T01:01:18.233Z,0
2017-09-14T01:02:28.495Z,0
2017-09-14T01:03:38.759Z,0
2017-09-14T01:04:48.700Z,0
2017-09-14T01:05:58.639Z,0
2017-09-14T01:07:08.906Z,0
2017-09-14T01:08:19.178Z,0
2017-09-14T01:09:28.798Z,0
2017-09-14T01:10:39.057Z,0
2017-09-14T01:11:49.321Z,0
2017-09-14T01:12:59.578Z,0
2017-09-14T01:14:09.841Z,0
2017-09-14T01:15:20.109Z,0
2017-09-14T01:16:30.048Z,0
2017-09-14T01:17:40.310Z,0
2017-09-14T01:18:50.575Z,0
2017-09-14T01:20:00.835Z,0
2017-09-14T01:21:11.095Z,0
2017-09-14T01:22:21.037Z,0
2017-09-14T01:23:31.301Z,0
2017-09-14T01:24:41.568Z,0
2017-09-14T01:30:15.940Z,0
2017-09-14T01:31:28.302Z,0
2017-09-14T01:32:38.564Z,0
2017-09-14T01:33:48.539Z,0
2017-09-14T01:34:58.485Z,0
2017-09-14T01:36:08.428Z,0
2017-09-14T01:37:18.616Z,0
2017-09-14T01:38:28.873Z,0
2017-09-14T01:39:39.149Z,0
2017-09-14T01:40:49.098Z,0
2017-09-14T01:41:58.719Z,0
2017-09-14T01:43:09.079Z,0
2017-09-14T01:44:19.352Z,0
2017-09-14T01:45:29.292Z,0
2017-09-14T01:46:38.910Z,0
2017-09-14T01:47:49.177Z,0
2017-09-14T01:48:59.641Z,0
2017-09-14T01:50:09.903Z,0
2017-09-14T01:51:20.189Z,0
2017-09-14T01:52:30.456Z,0
2017-09-14T01:53:40.717Z,0
2017-09-14T01:54:53.136Z,0
2017-09-14T01:56:03.401Z,0
2017-09-14T01:57:13.660Z,0
2017-09-14T01:58:23.924Z,0
2017-09-14T01:59:34.186Z,0
2017-09-14T02:00:44.435Z,0
2017-09-14T02:01:54.379Z,0
2017-09-14T02:03:04.641Z,0
2017-09-14T02:04:14.909Z,0
2017-09-14T02:05:25.181Z,0
2017-09-14T02:06:35.550Z,0
2017-09-14T02:07:45.813Z,0
2017-09-14T02:08:55.755Z,0
2017-09-14T02:10:06.018Z,0
2017-09-14T02:11:15.964Z,0
2017-09-14T02:12:26.055Z,0
2017-09-14T02:13:35.356Z,0
2017-09-14T02:14:45.616Z,0
2017-09-14T02:15:55.559Z,0
2017-09-14T02:17:05.821Z,0
2017-09-14T02:18:15.968Z,0
2017-09-14T02:19:25.909Z,0
2017-09-14T02:20:36.172Z,0
2017-09-14T02:21:45.793Z,0
2017-09-14T02:22:55.733Z,0
2017-09-14T02:24:06.144Z,0
2017-09-14T02:25:16.406Z,0
2017-09-14T02:26:26.662Z,0
2017-09-14T02:27:36.928Z,0
2017-09-14T02:28:47.191Z,0
2017-09-14T02:29:57.233Z,0
2017-09-14T02:31:07.505Z,0
2017-09-14T02:32:17.768Z,0
2017-09-14T02:33:27.711Z,0
2017-09-14T02:34:38.017Z,0
2017-09-14T02:35:48.382Z,0
2017-09-14T02:36:58.329Z,0
2017-09-14T02:38:08.599Z,0
2017-09-14T02:39:18.545Z,0
2017-09-14T02:40:28.811Z,0
2017-09-14T02:41:39.225Z,0
2017-09-14T02:42:49.492Z,0
2017-09-14T02:43:58.788Z,0
2017-09-14T02:45:09.061Z,0
2017-09-14T02:46:18.679Z,0
2017-09-14T02:47:29.190Z,0
2017-09-14T02:48:39.457Z,0
2017-09-14T02:49:49.718Z,0
2017-09-14T02:50:59.665Z,0
2017-09-14T02:52:09.934Z,0
2017-09-14T02:53:20.492Z,0
2017-09-14T02:54:30.766Z,0
2017-09-14T02:55:41.076Z,0
2017-09-14T02:56:51.018Z,0
2017-09-14T02:58:00.967Z,0
2017-09-14T02:59:11.332Z,0
2017-09-14T03:00:21.607Z,0
2017-09-14T03:01:31.897Z,0
2017-09-14T03:02:41.837Z,0
2017-09-14T03:03:52.096Z,0
2017-09-14T03:05:01.815Z,0
2017-09-14T03:06:12.076Z,0
2017-09-14T03:07:22.348Z,0
2017-09-14T03:08:32.615Z,0
2017-09-14T03:09:42.879Z,0
2017-09-14T03:10:55.254Z,0
2017-09-14T03:12:05.516Z,0
2017-09-14T03:13:15.785Z,0
2017-09-14T03:14:26.047Z,0
2017-09-14T03:15:36.310Z,0
2017-09-14T03:16:46.349Z,0
2017-09-14T03:17:56.607Z,0
2017-09-14T03:19:06.864Z,0
2017-09-14T03:20:15.840Z,0
2017-09-14T03:21:26.096Z,0
2017-09-14T03:22:36.463Z,0
2017-09-14T03:23:46.725Z,0
2017-09-14T03:24:56.667Z,0
2017-09-14T03:26:06.617Z,0
2017-09-14T03:27:16.892Z,0
2017-09-14T03:28:26.513Z,0
2017-09-14T03:29:36.773Z,0
2017-09-14T03:30:47.043Z,0
2017-09-14T03:31:56.991Z,0
2017-09-14T03:33:06.926Z,0
2017-09-14T03:34:17.185Z,0
2017-09-14T03:35:27.130Z,0
2017-09-14T03:36:37.392Z,0
2017-09-14T03:37:47.653Z,0
2017-09-14T03:38:57.922Z,0
2017-09-14T03:40:07.874Z,0
2017-09-14T03:41:18.145Z,0
2017-09-14T03:42:27.773Z,0
2017-09-14T03:43:37.723Z,0
2017-09-14T03:44:48.006Z,0
2017-09-14T03:45:58.278Z,0
2017-09-14T03:47:08.564Z,0
2017-09-14T03:48:18.842Z,0
2017-09-14T03:49:29.117Z,0
2017-09-14T03:50:39.391Z,0
2017-09-14T03:51:49.668Z,0
2017-09-14T03:52:59.951Z,0
2017-09-14T03:54:10.234Z,0
2017-09-14T03:55:20.506Z,0
2017-09-14T03:56:30.789Z,0
2017-09-14T03:57:40.735Z,0
2017-09-14T03:58:51.006Z,0
2017-09-14T04:00:00.958Z,0
2017-09-14T04:01:10.913Z,0
2017-09-14T04:02:20.541Z,0
2017-09-14T04:03:30.816Z,0
2017-09-14T04:04:41.084Z,0
2017-09-14T04:05:51.357Z,0
2017-09-14T04:07:01.316Z,0
2017-09-14T04:08:11.274Z,0
2017-09-14T04:09:21.553Z,0
2017-09-14T04:10:31.826Z,0
2017-09-14T04:11:42.102Z,0
2017-09-14T04:12:52.052Z,0
2017-09-14T04:14:02.019Z,0
2017-09-14T04:15:12.301Z,0
2017-09-14T04:16:22.581Z,0
2017-09-14T04:17:32.534Z,0
2017-09-14T04:18:42.485Z,0
2017-09-14T04:19:52.755Z,0
2017-09-14T04:21:03.029Z,0
2017-09-14T04:22:12.655Z,0
2017-09-14T04:23:22.937Z,0
2017-09-14T04:24:33.210Z,0
2017-09-14T04:25:43.170Z,0
2017-09-14T04:26:53.123Z,0
2017-09-14T04:28:03.397Z,0
2017-09-14T04:29:13.670Z,0
2017-09-14T04:30:23.945Z,0
2017-09-14T04:31:34.225Z,0
2017-09-14T04:32:44.177Z,0
2017-09-14T04:33:54.452Z,0
2017-09-14T04:35:04.410Z,0
2017-09-14T04:36:14.684Z,0
2017-09-14T04:37:24.956Z,0
2017-09-14T04:38:34.907Z,0
2017-09-14T04:39:45.181Z,0
2017-09-14T04:40:55.463Z,0
2017-09-14T04:42:05.736Z,5
2017-09-14T04:43:16.037Z,5
2017-09-14T04:44:26.023Z,5
2017-09-14T04:45:35.996Z,5
2017-09-14T04:46:46.294Z,5
2017-09-14T04:47:56.576Z,5
2017-09-14T04:49:06.849Z,10
2017-09-14T04:50:17.127Z,10
2017-09-14T04:51:27.413Z,10
2017-09-14T04:52:37.686Z,10
2017-09-14T04:53:47.960Z,10
2017-09-14T04:54:58.242Z,10
2017-09-14T04:56:08.513Z,10
2017-09-14T04:57:18.788Z,10
2017-09-14T04:58:29.064Z,15
2017-09-14T04:59:39.334Z,15
2017-09-14T05:00:49.605Z,15
2017-09-14T05:01:59.887Z,15
2017-09-14T05:03:09.842Z,15
2017-09-14T05:04:20.115Z,15
2017-09-14T05:05:30.388Z,15
2017-09-14T05:06:40.656Z,15
2017-09-14T05:07:50.929Z,15
2017-09-14T05:09:00.880Z,15
2017-09-14T05:10:10.838Z,15
2017-09-14T05:11:20.793Z,10
2017-09-14T05:12:31.078Z,10
2017-09-14T05:13:40.385Z,10
2017-09-14T05:14:50.666Z,10
2017-09-14T05:16:00.636Z,10
2017-09-14T05:17:10.275Z,10
2017-09-14T05:18:20.549Z,10
2017-09-14T05:19:30.501Z,15
2017-09-14T05:20:40.455Z,15
2017-09-14T05:21:50.785Z,15
2017-09-14T05:23:01.060Z,20
2017-09-14T05:24:11.017Z,20
2017-09-14T05:25:21.298Z,25
2017-09-14T05:26:31.579Z,25
2017-09-14T05:27:40.888Z,30
2017-09-14T05:28:51.169Z,30
2017-09-14T05:30:01.126Z,35
2017-09-14T05:31:11.077Z,35
2017-09-14T05:32:21.359Z,35
2017-09-14T05:33:31.628Z,40
2017-09-14T05:34:41.576Z,40
2017-09-14T05:35:51.851Z,45
2017-09-14T05:37:01.482Z,45
2017-09-14T05:38:11.759Z,45
2017-09-14T05:39:21.719Z,50
2017-09-14T05:40:31.671Z,50
2017-09-14T05:41:41.622Z,50
2017-09-14T05:42:51.900Z,55
2017-09-14T05:44:02.177Z,55
2017-09-14T05:45:11.817Z,60
2017-09-14T05:46:22.100Z,60
2017-09-14T05:47:32.047Z,65
2017-09-14T05:48:42.317Z,65
2017-09-14T05:49:51.623Z,65
2017-09-14T05:51:01.248Z,65
2017-09-14T05:52:11.522Z,70
2017-09-14T05:53:21.795Z,70
2017-09-14T05:54:32.064Z,70
2017-09-14T05:55:42.343Z,75
2017-09-14T05:56:52.291Z,75
2017-09-14T05:58:02.283Z,75
2017-09-14T05:59:12.554Z,75
2017-09-14T06:00:22.836Z,80
2017-09-14T06:01:33.108Z,80
2017-09-14T06:02:42.745Z,80
2017-09-14T06:03:52.702Z,80
2017-09-14T06:05:02.972Z,80
2017-09-14T06:06:12.934Z,80
2017-09-14T06:07:22.893Z,85
2017-09-14T06:08:32.851Z,90
2017-09-14T06:09:43.126Z,90
2017-09-14T06:10:53.397Z,95
2017-09-14T06:12:03.348Z,100
2017-09-14T06:13:13.618Z,110
2017-09-14T06:14:23.895Z,105
2017-09-14T06:15:33.846Z,110
2017-09-14T06:16:43.795Z,110
2017-09-14T06:17:53.757Z,110
2017-09-14T06:19:03.711Z,110
2017-09-14T06:20:13.985Z,105
2017-09-14T06:21:24.262Z,105
2017-09-14T06:22:34.221Z,105
2017-09-14T06:23:44.496Z,105
2017-09-14T06:24:54.455Z,110
2017-09-14T06:26:04.410Z,110
2017-09-14T06:27:14.363Z,115
2017-09-14T06:28:23.991Z,115
2017-09-14T06:29:33.945Z,120
2017-09-14T06:30:44.213Z,125
2017-09-14T06:31:53.849Z,130
2017-09-14T06:33:04.125Z,130
2017-09-14T06:34:14.077Z,130
2017-09-14T06:35:24.030Z,135
2017-09-14T06:36:33.986Z,140
2017-09-14T06:37:44.260Z,140
2017-09-14T06:38:54.221Z,145
2017-09-14T06:40:04.517Z,145
2017-09-14T06:41:14.791Z,145
2017-09-14T06:42:25.064Z,140
2017-09-14T06:43:35.014Z,135
2017-09-14T06:44:45.289Z,135
2017-09-14T06:45:55.570Z,140
2017-09-14T06:47:05.527Z,130
2017-09-14T06:48:15.486Z,120
2017-09-14T06:49:25.792Z,120
2017-09-14T06:50:36.062Z,115
2017-09-14T06:51:45.692Z,120
2017-09-14T06:52:55.646Z,135
2017-09-14T06:54:05.932Z,165
2017-09-14T06:55:15.888Z,175
2017-09-14T06:56:25.847Z,175
2017-09-14T06:57:36.121Z,170
2017-09-14T06:58:46.409Z,170
2017-09-14T06:59:56.678Z,170
2017-09-14T07:01:06.951Z,155
2017-09-14T07:02:17.228Z,150
2017-09-14T07:03:27.505Z,140
2017-09-14T07:04:37.458Z,140
2017-09-14T07:05:47.729Z,140
2017-09-14T07:06:57.680Z,140
2017-09-14T07:08:07.952Z,150
2017-09-14T07:09:18.226Z,170
2017-09-14T07:10:28.179Z,190
2017-09-14T07:11:37.806Z,195
2017-09-14T07:12:48.090Z,200
2017-09-14T07:13:58.041Z,205
2017-09-14T07:15:07.991Z,210
2017-09-14T07:16:18.269Z,215
2017-09-14T07:17:28.551Z,215
2017-09-14T07:18:38.510Z,220
2017-09-14T07:19:48.786Z,220
2017-09-14T07:20:58.741Z,225
2017-09-14T07:22:08.699Z,230
2017-09-14T07:23:18.674Z,225
2017-09-14T07:24:28.641Z,225
2017-09-14T07:25:38.920Z,230
2017-09-14T07:26:48.872Z,230
2017-09-14T07:27:58.825Z,240
2017-09-14T07:29:08.783Z,240
2017-09-14T07:30:19.057Z,250
2017-09-14T07:31:29.363Z,250
2017-09-14T07:32:39.642Z,255
2017-09-14T07:33:49.918Z,255
2017-09-14T07:34:59.569Z,255
2017-09-14T07:36:09.860Z,250
2017-09-14T07:37:19.489Z,250
2017-09-14T07:38:29.451Z,250
2017-09-14T07:39:39.745Z,255
2017-09-14T07:40:50.025Z,255
2017-09-14T07:42:00.310Z,265
2017-09-14T07:43:09.940Z,275
2017-09-14T07:44:19.894Z,280
2017-09-14T07:45:29.854Z,285
2017-09-14T07:46:40.131Z,280
2017-09-14T07:47:50.084Z,270
2017-09-14T07:49:00.372Z,265
2017-09-14T07:50:10.331Z,255
2017-09-14T07:51:20.619Z,255
2017-09-14T07:52:30.572Z,265
2017-09-14T07:53:40.843Z,270
2017-09-14T07:54:50.836Z,275
2017-09-14T07:56:00.149Z,280
2017-09-14T07:57:10.106Z,285
2017-09-14T07:58:20.391Z,275
2017-09-14T07:59:30.345Z,270
2017-09-14T08:00:40.625Z,260
2017-09-14T08:01:50.904Z,265
2017-09-14T08:03:01.185Z,260
2017-09-14T08:04:11.144Z,255
2017-09-14T08:05:21.426Z,245
2017-09-14T08:06:31.715Z,240
2017-09-14T08:07:41.672Z,230
2017-09-14T08:08:51.947Z,230
2017-09-14T08:10:01.584Z,225
2017-09-14T08:11:11.876Z,215
2017-09-14T08:12:22.154Z,210
2017-09-14T08:13:32.430Z,215
2017-09-14T08:14:42.704Z,225
2017-09-14T08:15:52.659Z,240
2017-09-14T08:17:02.615Z,255
2017-09-14T08:18:12.590Z,260
2017-09-14T08:19:22.870Z,270
2017-09-14T08:20:33.146Z,290
2017-09-14T08:21:43.428Z,300
2017-09-14T08:22:53.388Z,305
2017-09-14T08:24:03.337Z,310
2017-09-14T08:25:13.296Z,300
2017-09-14T08:26:23.569Z,295
2017-09-14T08:27:33.528Z,290
2017-09-14T08:28:43.192Z,285
2017-09-14T08:29:53.150Z,290
2017-09-14T08:31:03.110Z,290
2017-09-14T08:32:13.072Z,285
2017-09-14T08:33:23.031Z,270
2017-09-14T08:34:33.309Z,255
2017-09-14T08:35:43.588Z,240
2017-09-14T08:36:53.866Z,230
2017-09-14T08:38:03.824Z,225
2017-09-14T08:39:13.783Z,220
2017-09-14T08:40:24.063Z,220
2017-09-14T08:41:34.366Z,215
2017-09-14T08:42:44.322Z,225
2017-09-14T08:43:54.298Z,245
2017-09-14T08:45:04.592Z,265
2017-09-14T08:46:14.549Z,290
2017-09-14T08:47:24.504Z,310
2017-09-14T08:48:34.464Z,325
2017-09-14T08:49:44.741Z,330
2017-09-14T08:50:55.024Z,325
2017-09-14T08:52:05.302Z,310
2017-09-14T08:53:15.581Z,295
2017-09-14T08:54:25.530Z,280
2017-09-14T08:55:35.812Z,265
2017-09-14T08:56:45.764Z,275
2017-09-14T08:57:56.039Z,300
2017-09-14T08:59:05.681Z,315
2017-09-14T09:00:15.967Z,325
2017-09-14T09:01:25.924Z,330
2017-09-14T09:02:36.203Z,330
2017-09-14T09:03:46.168Z,330
2017-09-14T09:04:56.446Z,330
2017-09-14T09:06:06.731Z,330
2017-09-14T09:07:16.038Z,330
2017-09-14T09:08:26.318Z,330
2017-09-14T09:09:36.276Z,335
2017-09-14T09:10:46.236Z,340
2017-09-14T09:11:56.190Z,345
2017-09-14T09:13:06.142Z,345
2017-09-14T09:14:16.098Z,340
2017-09-14T09:15:25.729Z,340
2017-09-14T09:16:36.003Z,345
2017-09-14T09:17:45.986Z,355
2017-09-14T09:18:55.949Z,370
2017-09-14T09:20:05.905Z,400
2017-09-14T09:21:16.207Z,410
2017-09-14T09:22:26.171Z,420
2017-09-14T09:23:36.134Z,430
2017-09-14T09:24:46.087Z,435
2017-09-14T09:25:56.366Z,445
2017-09-14T09:27:06.649Z,465
2017-09-14T09:28:16.287Z,460
2017-09-14T09:29:26.246Z,450
2017-09-14T09:30:35.880Z,435
2017-09-14T09:31:45.193Z,420
2017-09-14T09:32:55.474Z,415
2017-09-14T09:34:05.753Z,405
2017-09-14T09:35:16.029Z,405
2017-09-14T09:36:25.985Z,415
2017-09-14T09:37:36.274Z,430
2017-09-14T09:38:46.234Z,415
2017-09-14T09:39:56.199Z,395
2017-09-14T09:41:06.476Z,370
2017-09-14T09:42:16.435Z,350
2017-09-14T09:43:26.390Z,350
2017-09-14T09:44:36.025Z,350
2017-09-14T09:45:46.312Z,360
2017-09-14T09:46:56.265Z,370
2017-09-14T09:48:06.552Z,380
2017-09-14T09:49:16.182Z,385
2017-09-14T09:50:26.462Z,375
2017-09-14T09:51:36.424Z,360
2017-09-14T09:52:46.391Z,350
2017-09-14T09:53:56.028Z,340
2017-09-14T09:55:06.306Z,335
2017-09-14T09:56:16.263Z,330
2017-09-14T09:57:26.219Z,330
2017-09-14T09:58:36.502Z,325
2017-09-14T09:59:46.460Z,345
2017-09-14T10:00:56.416Z,360
2017-09-14T10:02:06.377Z,380
2017-09-14T10:03:16.339Z,390
2017-09-14T10:04:26.300Z,390
2017-09-14T10:05:36.581Z,390
2017-09-14T10:06:46.862Z,390
2017-09-14T10:07:57.139Z,405
2017-09-14T10:09:06.450Z,430
2017-09-14T10:10:16.052Z,445
2017-09-14T10:11:26.015Z,450
2017-09-14T10:12:35.978Z,460
2017-09-14T10:13:46.271Z,465
2017-09-14T10:14:56.274Z,465
2017-09-14T10:16:06.559Z,450
2017-09-14T10:17:16.198Z,445
2017-09-14T10:18:26.489Z,445
2017-09-14T10:19:36.447Z,445
2017-09-14T10:20:46.727Z,445
2017-09-14T10:21:57.010Z,440
2017-09-14T10:23:07.289Z,445
2017-09-14T10:24:17.576Z,460
2017-09-14T10:25:27.857Z,470
2017-09-14T10:26:38.141Z,480
2017-09-14T10:27:47.453Z,490
2017-09-14T10:28:57.738Z,510
2017-09-14T10:30:07.378Z,530
2017-09-14T10:31:17.337Z,565
2017-09-14T10:32:27.640Z,585
2017-09-14T10:33:37.291Z,585
2017-09-14T10:34:47.247Z,585
2017-09-14T10:35:57.209Z,590
2017-09-14T10:37:07.499Z,585
2017-09-14T10:38:17.803Z,625
2017-09-14T10:39:27.768Z,630
2017-09-14T10:40:38.049Z,625
2017-09-14T10:41:47.696Z,605
2017-09-14T10:42:57.658Z,595
2017-09-14T10:44:07.294Z,585
2017-09-14T10:45:17.299Z,595
2017-09-14T10:46:27.259Z,610
2017-09-14T10:47:37.543Z,595
2017-09-14T10:48:47.505Z,585
2017-09-14T10:49:57.476Z,580
2017-09-14T10:51:07.767Z,595
2017-09-14T10:52:18.051Z,565
2017-09-14T10:53:28.332Z,510
2017-09-14T10:54:37.967Z,470
2017-09-14T10:55:47.930Z,440
2017-09-14T10:56:57.902Z,420
2017-09-14T10:58:07.861Z,425
2017-09-14T10:59:17.817Z,425
2017-09-14T11:00:28.094Z,390
2017-09-14T11:01:38.374Z,385
2017-09-14T11:02:48.658Z,385
2017-09-14T11:03:58.621Z,395
2017-09-14T11:05:08.592Z,465
2017-09-14T11:06:18.876Z,525
2017-09-14T11:07:28.516Z,560
2017-09-14T11:08:38.480Z,620
2017-09-14T11:09:48.441Z,710
2017-09-14T11:10:58.081Z,795
2017-09-14T11:12:07.721Z,865
2017-09-14T11:13:17.680Z,840
2017-09-14T11:14:26.997Z,930
2017-09-14T11:15:36.957Z,915
2017-09-14T11:16:46.941Z,900
2017-09-14T11:17:57.225Z,955
2017-09-14T11:19:06.864Z,945
2017-09-14T11:20:17.172Z,940
2017-09-14T11:21:27.151Z,945
2017-09-14T11:22:36.798Z,990
2017-09-14T11:23:47.086Z,1045
2017-09-14T11:24:57.046Z,1075
2017-09-14T11:26:07.008Z,1065
2017-09-14T11:27:17.308Z,905
2017-09-14T11:28:26.953Z,715
2017-09-14T11:29:36.916Z,670
2017-09-14T11:30:46.889Z,640
2017-09-14T11:31:57.177Z,635
2017-09-14T11:33:07.468Z,600
2017-09-14T11:34:17.759Z,570
2017-09-14T11:35:28.054Z,550
2017-09-14T11:36:38.370Z,540
2017-09-14T11:37:48.655Z,515
2017-09-14T11:38:58.952Z,500
2017-09-14T11:40:08.917Z,465
2017-09-14T11:41:19.198Z,405
2017-09-14T11:42:29.170Z,365
2017-09-14T11:43:39.465Z,330
2017-09-14T11:44:49.748Z,310
2017-09-14T11:46:00.037Z,315
2017-09-14T11:47:09.673Z,310
2017-09-14T11:48:19.636Z,305
2017-09-14T11:49:29.600Z,310
2017-09-14T11:50:39.893Z,305
2017-09-14T11:51:50.175Z,290
2017-09-14T11:53:00.146Z,280
2017-09-14T11:54:10.106Z,275
2017-09-14T11:55:19.741Z,245
2017-09-14T11:56:29.378Z,220
2017-09-14T11:57:39.338Z,195
2017-09-14T11:58:49.631Z,185
2017-09-14T11:59:59.271Z,180
2017-09-14T12:01:09.549Z,175
2017-09-14T12:02:19.506Z,175
2017-09-14T12:03:29.468Z,175
2017-09-14T12:04:39.104Z,175
2017-09-14T12:05:49.394Z,175
2017-09-14T12:06:59.687Z,180
2017-09-14T12:08:09.970Z,185
2017-09-14T12:09:19.607Z,190
2017-09-14T12:10:29.247Z,195
2017-09-14T12:11:39.546Z,205
2017-09-14T12:12:49.506Z,205
2017-09-14T12:13:59.788Z,210
2017-09-14T12:15:10.073Z,215
2017-09-14T12:16:20.034Z,220
2017-09-14T12:17:30.005Z,225
2017-09-14T12:18:39.645Z,230
2017-09-14T12:19:49.601Z,240
2017-09-14T12:20:59.568Z,250
2017-09-14T12:22:09.206Z,260
2017-09-14T12:23:19.166Z,270
2017-09-14T12:24:28.804Z,275
2017-09-14T12:25:39.088Z,280
2017-09-14T12:26:48.722Z,290
2017-09-14T12:27:59.010Z,300
2017-09-14T12:29:08.975Z,305
2017-09-14T12:30:18.935Z,315
2017-09-14T12:31:28.899Z,320
2017-09-14T12:32:38.858Z,325
2017-09-14T12:33:48.817Z,330
2017-09-14T12:34:59.111Z,335
2017-09-14T12:36:09.077Z,335
2017-09-14T12:37:19.357Z,335
2017-09-14T12:38:29.639Z,340
2017-09-14T12:39:38.948Z,340
2017-09-14T12:40:48.584Z,345
2017-09-14T12:41:58.553Z,345
2017-09-14T12:43:08.515Z,345
2017-09-14T12:44:18.149Z,350
2017-09-14T12:45:28.110Z,350
2017-09-14T12:46:38.384Z,350
2017-09-14T12:47:48.359Z,350
2017-09-14T12:48:58.318Z,355
2017-09-14T12:50:08.274Z,365
2017-09-14T12:51:18.237Z,370
2017-09-14T12:52:27.880Z,375
2017-09-14T12:53:37.525Z,385
2017-09-14T12:54:47.494Z,390
2017-09-14T12:55:57.461Z,395
2017-09-14T12:57:07.102Z,400
2017-09-14T12:58:17.060Z,405
2017-09-14T12:59:26.695Z,410
2017-09-14T13:00:36.661Z,415
2017-09-14T13:01:46.297Z,430
2017-09-14T13:02:56.577Z,445
2017-09-14T13:04:06.878Z,460
2017-09-14T13:05:16.510Z,470
2017-09-14T13:06:26.802Z,505
2017-09-14T13:07:37.088Z,520
2017-09-14T13:08:46.725Z,555
2017-09-14T13:09:56.685Z,620
2017-09-14T13:11:06.646Z,645
2017-09-14T13:12:16.616Z,590
2017-09-14T13:13:26.580Z,615
2017-09-14T13:14:36.860Z,775
2017-09-14T13:15:47.149Z,890
2017-09-14T13:16:56.791Z,950
2017-09-14T13:18:07.070Z,795
2017-09-14T13:19:16.711Z,735
2017-09-14T13:20:26.673Z,740
2017-09-14T13:21:36.631Z,755
2017-09-14T13:22:46.926Z,720
2017-09-14T13:23:57.216Z,685
2017-09-14T13:25:07.507Z,685
2017-09-14T13:26:17.822Z,700
2017-09-14T13:27:27.464Z,705
2017-09-14T13:28:37.749Z,695
2017-09-14T13:29:47.715Z,660
2017-09-14T13:30:57.675Z,635
2017-09-14T13:32:07.328Z,615
2017-09-14T13:33:17.297Z,605
2017-09-14T13:34:27.593Z,600
2017-09-14T13:35:37.274Z,605
2017-09-14T13:36:47.239Z,600
2017-09-14T13:37:57.525Z,595
2017-09-14T13:39:07.488Z,605
2017-09-14T13:40:17.137Z,625
2017-09-14T13:41:27.103Z,625
2017-09-14T13:42:37.490Z,645
2017-09-14T13:43:47.917Z,645
2017-09-14T13:44:58.881Z,655
2017-09-14T13:46:09.132Z,645
2017-09-14T13:47:19.335Z,640
2017-09-14T13:48:29.467Z,630
2017-09-14T13:49:39.542Z,615
2017-09-14T13:50:48.864Z,615
2017-09-14T13:51:58.569Z,605
2017-09-14T13:53:08.850Z,600
2017-09-14T13:54:19.138Z,595
2017-09-14T13:55:29.422Z,595
2017-09-14T13:56:39.384Z,590
2017-09-14T13:57:49.026Z,560
2017-09-14T13:58:59.045Z,555
2017-09-14T14:00:08.685Z,550
2017-09-14T14:01:18.358Z,550
2017-09-14T14:02:28.344Z,560
2017-09-14T14:03:38.634Z,565
2017-09-14T14:04:48.603Z,580
2017-09-14T14:05:58.243Z,605
2017-09-14T14:07:07.887Z,625
2017-09-14T14:08:17.854Z,630
2017-09-14T14:09:28.150Z,735
2017-09-14T14:10:38.435Z,795
2017-09-14T14:11:48.076Z,670
2017-09-14T14:12:58.045Z,640
2017-09-14T14:14:07.684Z,650
2017-09-14T14:15:17.663Z,750
2017-09-14T14:16:27.948Z,665
2017-09-14T14:17:37.907Z,560
2017-09-14T14:18:47.871Z,505
2017-09-14T14:19:57.830Z,480
2017-09-14T14:21:07.804Z,485
2017-09-14T14:22:17.767Z,490
2017-09-14T14:23:27.729Z,525
2017-09-14T14:24:37.369Z,615
2017-09-14T14:25:47.325Z,550
2017-09-14T14:26:56.648Z,580
2017-09-14T14:28:06.935Z,575
2017-09-14T14:29:15.929Z,515
2017-09-14T14:30:25.888Z,475
2017-09-14T14:31:35.845Z,485
2017-09-14T14:32:45.483Z,470
2017-09-14T14:33:55.764Z,505
2017-09-14T14:35:06.048Z,515
2017-09-14T14:36:16.010Z,505
2017-09-14T14:37:25.976Z,505
2017-09-14T14:38:36.260Z,490
2017-09-14T14:39:46.216Z,465
2017-09-14T14:40:55.890Z,440
2017-09-14T14:42:06.188Z,425
2017-09-14T14:43:16.156Z,420
2017-09-14T14:44:26.121Z,420
2017-09-14T14:45:36.189Z,415
2017-09-14T14:46:46.478Z,415
2017-09-14T14:47:56.445Z,405
2017-09-14T14:49:06.408Z,390
2017-09-14T14:50:16.368Z,385
2017-09-14T14:51:26.333Z,375
2017-09-14T14:52:36.294Z,370
2017-09-14T14:53:46.261Z,360
2017-09-14T14:54:55.901Z,360
2017-09-14T14:56:05.540Z,365
2017-09-14T14:57:15.497Z,360
2017-09-14T14:58:25.477Z,365
2017-09-14T14:59:35.441Z,365
2017-09-14T15:00:45.725Z,385
2017-09-14T15:01:56.011Z,390
2017-09-14T15:03:06.306Z,410
2017-09-14T15:04:16.267Z,405
2017-09-14T15:05:26.231Z,400
2017-09-14T15:06:36.195Z,405
2017-09-14T15:07:46.489Z,410
2017-09-14T15:08:55.807Z,410
2017-09-14T15:10:05.827Z,400
2017-09-14T15:11:15.799Z,390
2017-09-14T15:12:25.762Z,370
2017-09-14T15:13:35.732Z,355
2017-09-14T15:14:46.058Z,355
2017-09-14T15:15:56.020Z,355
2017-09-14T15:17:06.016Z,345
2017-09-14T15:18:16.298Z,345
2017-09-14T15:19:26.584Z,340
2017-09-14T15:20:36.865Z,335
2017-09-14T15:21:46.826Z,330
2017-09-14T15:22:56.788Z,325
2017-09-14T15:24:06.752Z,315
2017-09-14T15:25:16.066Z,320
2017-09-14T15:26:26.361Z,310
2017-09-14T15:27:36.327Z,300
2017-09-14T15:28:46.288Z,280
2017-09-14T15:29:56.575Z,270
2017-09-14T15:31:06.859Z,265
2017-09-14T15:32:16.175Z,260
2017-09-14T15:33:26.156Z,255
2017-09-14T15:34:36.452Z,250
2017-09-14T15:35:46.416Z,250
2017-09-14T15:36:56.696Z,245
2017-09-14T15:38:06.975Z,240
2017-09-14T15:39:16.938Z,240
2017-09-14T15:40:26.903Z,235
2017-09-14T15:41:36.862Z,235
2017-09-14T15:42:47.151Z,230
2017-09-14T15:43:57.108Z,230
2017-09-14T15:45:07.079Z,225
2017-09-14T15:46:17.408Z,225
2017-09-14T15:47:27.043Z,220
2017-09-14T15:48:37.002Z,220
2017-09-14T15:49:46.638Z,215
2017-09-14T15:50:56.600Z,215
2017-09-14T15:52:06.571Z,215
2017-09-14T15:53:16.529Z,215
2017-09-14T15:54:26.484Z,215
2017-09-14T15:55:36.444Z,210
2017-09-14T15:56:46.396Z,210
2017-09-14T15:57:56.680Z,210
2017-09-14T15:59:06.966Z,215
2017-09-14T16:00:16.926Z,210
2017-09-14T16:01:27.225Z,210
2017-09-14T16:02:37.513Z,210
2017-09-14T16:03:47.154Z,210
2017-09-14T16:04:57.115Z,205
2017-09-14T16:06:07.103Z,205
2017-09-14T16:07:16.738Z,200
2017-09-14T16:08:27.023Z,200
2017-09-14T16:09:36.984Z,195
2017-09-14T16:10:46.944Z,195
2017-09-14T16:11:57.221Z,190
2017-09-14T16:13:07.189Z,190
2017-09-14T16:14:17.160Z,185
2017-09-14T16:15:27.129Z,185
2017-09-14T16:16:37.412Z,180
2017-09-14T16:17:47.052Z,175
2017-09-14T16:18:56.693Z,175
2017-09-14T16:20:06.652Z,170
2017-09-14T16:21:16.610Z,170
2017-09-14T16:22:26.893Z,165
2017-09-14T16:23:36.858Z,160
2017-09-14T16:24:46.814Z,160
2017-09-14T16:25:56.772Z,155
2017-09-14T16:27:06.735Z,155
2017-09-14T16:28:17.046Z,150
2017-09-14T16:29:27.338Z,150
2017-09-14T16:30:36.979Z,150
2017-09-14T16:31:47.255Z,145